Time;durP1;ratioP1;P1;durP2;ratioP2;P2;SDS_P1;SDS_P2;PMS_P1;PMS_P2;Temp;Humidity;BMP_temperature;BMP_pressure;BME280_temperature;BME280_humidity;BME280_pressure;Samples;Min_cycle;Max_cycle;Signal;HPM_P1;HPM_P2
2022/10/20 00:01:48;;;;;;;24.63;8.35;;;;;;;15.71;100.00;99937.06;4993424;28;20155;-75
2022/10/20 00:04:14;;;;;;;21.08;7.93;;;;;;;15.71;100.00;99931.47;5012871;28;20446;-75
2022/10/20 00:06:39;;;;;;;28.30;9.02;;;;;;;15.66;100.00;99926.03;5024283;28;20049;-75
2022/10/20 00:09:05;;;;;;;24.83;8.95;;;;;;;15.61;100.00;99915.88;5014100;28;20022;-75
2022/10/20 00:11:31;;;;;;;22.40;8.68;;;;;;;15.61;100.00;99915.06;5013120;28;20026;-75
2022/10/20 00:13:56;;;;;;;22.60;8.35;;;;;;;15.60;100.00;99910.59;4991040;28;20056;-75
2022/10/20 00:16:22;;;;;;;20.55;7.75;;;;;;;15.61;100.00;99898.25;5018810;28;20041;-75
2022/10/20 00:18:48;;;;;;;27.17;8.68;;;;;;;15.60;100.00;99891.84;4998951;28;20037;-74
2022/10/20 00:21:15;;;;;;;17.83;8.02;;;;;;;15.60;100.00;99888.22;5002441;28;20017;-75
2022/10/20 00:23:40;;;;;;;22.10;7.68;;;;;;;15.56;100.00;99882.50;5021105;28;20060;-74
2022/10/20 00:26:07;;;;;;;22.15;7.75;;;;;;;15.59;100.00;99894.97;5001994;28;20496;-74
2022/10/20 00:28:33;;;;;;;15.02;7.50;;;;;;;15.58;100.00;99899.75;5021701;28;20037;-74
2022/10/20 00:30:58;;;;;;;19.08;8.45;;;;;;;15.58;100.00;99893.34;5043445;28;20041;-74
2022/10/20 00:33:24;;;;;;;20.90;7.82;;;;;;;15.57;100.00;99894.50;5023429;28;20029;-74
2022/10/20 00:35:50;;;;;;;19.77;7.80;;;;;;;15.56;100.00;99890.06;5035235;28;20067;-74
2022/10/20 00:38:15;;;;;;;19.10;7.88;;;;;;;15.53;100.00;99888.78;4999121;28;20026;-74
2022/10/20 00:40:41;;;;;;;22.52;8.23;;;;;;;15.53;100.00;99897.16;5013975;28;20028;-74
2022/10/20 00:43:13;;;;;;;19.42;8.02;;;;;;;15.54;100.00;99903.59;5038303;28;20028;-74
2022/10/20 00:45:38;;;;;;;18.73;6.80;;;;;;;15.52;100.00;99909.53;5005754;28;20441;-74
2022/10/20 00:48:06;;;;;;;27.13;8.57;;;;;;;15.51;100.00;99916.28;5054421;28;20028;-74
2022/10/20 00:50:39;;;;;;;22.38;7.75;;;;;;;15.49;100.00;99918.63;5005638;28;20500;-75
2022/10/20 00:53:04;;;;;;;20.40;7.10;;;;;;;15.50;100.00;99911.03;5021913;28;20033;-74
2022/10/20 00:55:31;;;;;;;15.88;7.32;;;;;;;15.48;100.00;99897.38;5021480;28;20036;-75
2022/10/20 00:57:57;;;;;;;17.88;6.95;;;;;;;15.49;100.00;99904.63;5021998;28;20033;-75
2022/10/20 01:00:23;;;;;;;21.58;7.10;;;;;;;15.49;100.00;99903.78;5005128;28;20033;-74
2022/10/20 01:02:49;;;;;;;16.00;7.22;;;;;;;15.48;100.00;99914.16;4995466;28;20024;-74
2022/10/20 01:05:14;;;;;;;19.70;7.80;;;;;;;15.49;100.00;99906.59;4993860;28;20040;-74
2022/10/20 01:07:40;;;;;;;20.40;7.45;;;;;;;15.48;100.00;99904.97;5014568;28;20054;-74
2022/10/20 01:10:06;;;;;;;20.85;8.05;;;;;;;15.47;100.00;99895.75;5008206;28;20073;-75
2022/10/20 01:12:54;;;;;;;21.60;7.85;;;;;;;15.46;100.00;99912.88;4999877;28;20064;-75
2022/10/20 01:15:32;;;;;;;19.80;6.90;;;;;;;15.45;100.00;99900.03;5018928;28;20025;-75
2022/10/20 01:18:07;;;;;;;19.73;6.80;;;;;;;15.44;100.00;99904.00;5029924;28;20048;-75
2022/10/20 01:20:39;;;;;;;17.48;6.95;;;;;;;15.38;100.00;99898.63;5015351;28;20041;-74
2022/10/20 01:23:32;;;;;;;27.73;7.88;;;;;;;15.40;100.00;99895.47;5037797;28;20052;-75
2022/10/20 01:26:01;;;;;;;19.02;7.53;;;;;;;15.37;100.00;99894.16;5037416;28;20033;-74
2022/10/20 01:28:45;;;;;;;17.83;7.25;;;;;;;15.36;100.00;99891.72;5038827;28;20035;-74
2022/10/20 01:31:38;;;;;;;17.02;6.70;;;;;;;15.37;100.00;99882.16;5024560;28;20040;-74
2022/10/20 01:34:16;;;;;;;;;;;;;;;15.34;100.00;99869.66;5023933;28;20084;-74
2022/10/20 01:36:50;;;;;;;20.10;7.65;;;;;;;15.33;100.00;99861.63;5014191;28;19916;-74
2022/10/20 01:39:18;;;;;;;22.83;7.80;;;;;;;15.27;100.00;99871.41;5028445;28;20120;-74
2022/10/20 01:41:55;;;;;;;19.05;7.70;;;;;;;15.27;100.00;99866.63;5010533;28;20022;-74
2022/10/20 01:44:22;;;;;;;23.75;7.50;;;;;;;15.25;100.00;99863.34;5012859;28;20112;-74
2022/10/20 01:46:48;;;;;;;17.83;7.32;;;;;;;15.27;100.00;99855.44;4994196;28;20025;-74
2022/10/20 01:49:13;;;;;;;20.17;8.90;;;;;;;15.25;100.00;99856.94;5004535;28;20382;-74
2022/10/20 01:51:39;;;;;;;16.83;7.45;;;;;;;15.27;100.00;99855.44;4998120;28;20038;-74
2022/10/20 01:54:05;;;;;;;22.52;8.27;;;;;;;15.28;100.00;99853.44;4984842;28;20056;-75
2022/10/20 01:56:59;;;;;;;23.02;7.57;;;;;;;15.28;100.00;99856.25;5010971;28;20123;-75
2022/10/20 01:59:31;;;;;;;16.63;6.40;;;;;;;15.28;100.00;99857.06;4999900;28;20030;-75
2022/10/20 02:02:10;;;;;;;22.55;7.32;;;;;;;15.26;100.00;99850.97;5021517;28;20061;-75
2022/10/20 02:04:49;;;;;;;15.85;7.35;;;;;;;15.26;100.00;99838.97;4982351;28;20033;-75
2022/10/20 02:07:22;;;;;;;11.07;5.68;;;;;;;15.25;100.00;99846.56;5010828;28;20054;-75
2022/10/20 02:09:48;;;;;;;15.95;7.45;;;;;;;15.26;100.00;99834.19;4986763;28;20076;-75
2022/10/20 02:12:27;;;;;;;16.13;6.90;;;;;;;15.27;100.00;99840.63;5006503;28;20087;-75
2022/10/20 02:14:53;;;;;;;17.30;7.57;;;;;;;15.28;100.00;99829.09;4994057;28;20036;-75
2022/10/20 02:17:19;;;;;;;16.55;6.32;;;;;;;15.27;100.00;99824.66;5009494;28;20032;-74
2022/10/20 02:19:44;;;;;;;14.50;6.72;;;;;;;15.27;100.00;99827.44;5028506;28;20370;-75
2022/10/20 02:22:11;;;;;;;15.52;6.50;;;;;;;15.27;100.00;99823.84;5026977;28;20056;-74
2022/10/20 02:24:38;;;;;;;19.95;6.90;;;;;;;15.26;100.00;99820.19;4991996;28;20076;-75
2022/10/20 02:27:25;;;;;;;17.25;7.00;;;;;;;15.26;100.00;99814.59;5007806;28;20421;-75
2022/10/20 02:29:59;;;;;;;23.92;7.43;;;;;;;15.28;100.00;99814.28;5034146;28;20697;-75
2022/10/20 02:32:24;;;;;;;23.58;7.60;;;;;;;15.27;100.00;99807.88;5001442;28;20085;-75
2022/10/20 02:34:50;;;;;;;22.30;8.05;;;;;;;15.28;100.00;99812.28;5000643;28;20614;-75
2022/10/20 02:37:16;;;;;;;25.20;7.78;;;;;;;15.28;100.00;99814.28;5031546;28;20025;-74
2022/10/20 02:39:41;;;;;;;21.48;7.38;;;;;;;15.27;100.00;99809.84;5003803;28;20513;-74
2022/10/20 02:42:07;;;;;;;21.77;7.88;;;;;;;15.27;100.00;99798.66;5001241;28;20021;-74
2022/10/20 02:44:32;;;;;;;28.55;8.80;;;;;;;15.25;100.00;99790.59;5040973;28;20064;-74
2022/10/20 02:46:58;;;;;;;22.73;7.75;;;;;;;15.25;100.00;99776.63;5029926;28;20029;-74
2022/10/20 02:49:24;;;;;;;21.98;8.07;;;;;;;15.23;100.00;99756.56;5008074;28;20033;-74
2022/10/20 02:51:49;;;;;;;27.65;9.05;;;;;;;15.25;100.00;99748.66;5030197;28;20026;-74
2022/10/20 02:54:15;;;;;;;23.83;8.55;;;;;;;15.25;100.00;99739.44;5034044;28;20038;-74
2022/10/20 02:56:41;;;;;;;24.50;9.30;;;;;;;15.23;100.00;99720.19;5001154;28;20053;-75
2022/10/20 02:59:07;;;;;;;26.10;9.48;;;;;;;15.23;100.00;99711.81;4984846;28;20022;-74
2022/10/20 03:01:33;;;;;;;26.80;9.02;;;;;;;15.24;100.00;99710.66;5000841;28;20037;-74
2022/10/20 03:03:59;;;;;;;28.73;9.82;;;;;;;15.24;100.00;99709.81;5010042;28;20037;-74
2022/10/20 03:06:25;;;;;;;24.60;9.10;;;;;;;15.24;100.00;99721.84;5000718;28;20402;-74
2022/10/20 03:08:50;;;;;;;27.83;9.43;;;;;;;15.24;100.00;99721.00;5018638;28;20116;-74
2022/10/20 03:11:16;;;;;;;22.55;8.48;;;;;;;15.23;100.00;99720.19;5013317;28;20516;-74
2022/10/20 03:13:41;;;;;;;30.85;9.13;;;;;;;15.23;100.00;99714.59;5010899;28;20030;-74
2022/10/20 03:16:07;;;;;;;28.77;10.13;;;;;;;15.24;100.00;99716.25;5000596;28;20482;-75
2022/10/20 03:18:32;;;;;;;27.08;9.27;;;;;;;15.22;100.00;99715.78;5014796;28;20522;-74
2022/10/20 03:20:58;;;;;;;27.65;9.15;;;;;;;15.24;100.00;99709.81;5022505;28;20045;-74
2022/10/20 03:23:23;;;;;;;28.02;8.98;;;;;;;15.23;100.00;99723.00;5029139;28;20543;-74
2022/10/20 03:25:49;;;;;;;27.67;9.57;;;;;;;15.23;100.00;99711.81;5022813;28;20032;-74
2022/10/20 03:28:14;;;;;;;23.67;8.82;;;;;;;15.20;100.00;99698.50;5018058;28;20038;-74
2022/10/20 03:30:40;;;;;;;27.17;9.50;;;;;;;15.23;100.00;99697.81;5045670;28;20036;-74
2022/10/20 03:33:05;;;;;;;23.95;9.10;;;;;;;15.23;100.00;99709.00;5006534;28;20038;-74
2022/10/20 03:35:30;;;;;;;23.02;8.15;;;;;;;15.24;100.00;99710.66;5029009;28;20029;-74
2022/10/20 03:37:56;;;;;;;27.40;9.35;;;;;;;15.25;100.00;99719.88;5023182;28;20060;-74
2022/10/20 03:40:21;;;;;;;24.83;8.98;;;;;;;15.26;100.00;99721.50;4996003;28;20028;-74
2022/10/20 03:42:47;;;;;;;29.65;9.40;;;;;;;15.24;100.00;99719.06;5009757;28;20071;-74
2022/10/20 03:45:12;;;;;;;27.55;9.80;;;;;;;15.24;100.00;99719.06;5030709;28;20037;-74
2022/10/20 03:47:38;;;;;;;35.42;9.32;;;;;;;15.22;100.00;99712.16;5032632;28;20048;-74
2022/10/20 03:50:03;;;;;;;25.95;8.90;;;;;;;15.24;100.00;99707.03;4995764;28;20040;-74
2022/10/20 03:52:29;;;;;;;22.45;8.38;;;;;;;15.22;100.00;99696.19;5037163;28;20032;-74
2022/10/20 03:54:54;;;;;;;34.13;9.55;;;;;;;15.20;100.00;99712.50;4995629;28;20091;-74
2022/10/20 03:57:20;;;;;;;23.60;8.00;;;;;;;15.20;100.00;99706.91;5026238;28;20045;-74
2022/10/20 03:59:46;;;;;;;29.08;8.05;;;;;;;15.19;100.00;99703.28;4994624;28;20033;-74
2022/10/20 04:02:42;;;;;;;30.52;8.82;;;;;;;15.21;100.00;99728.13;4986748;28;20034;-74
2022/10/20 04:05:08;;;;;;;27.10;8.20;;;;;;;15.21;100.00;99730.94;4991294;28;20037;-74
2022/10/20 04:07:33;;;;;;;21.92;8.38;;;;;;;15.19;100.00;99711.69;5000998;28;20056;-75
2022/10/20 04:10:01;;;;;;;27.60;8.77;;;;;;;15.21;100.00;99730.94;5015175;28;20038;-74
2022/10/20 04:12:26;;;;;;;28.33;8.40;;;;;;;15.22;100.00;99706.56;4994146;28;20116;-74
2022/10/20 04:14:52;;;;;;;22.85;8.13;;;;;;;15.22;100.00;99701.78;5019176;28;20104;-75
2022/10/20 04:17:17;;;;;;;24.00;7.85;;;;;;;15.20;100.00;99695.72;5002369;28;20075;-74
2022/10/20 04:19:43;;;;;;;20.55;7.28;;;;;;;15.22;100.00;99701.78;5002399;28;20021;-74
2022/10/20 04:22:08;;;;;;;26.02;8.02;;;;;;;15.23;100.00;99709.00;5004724;28;20021;-74
2022/10/20 04:24:34;;;;;;;24.33;8.10;;;;;;;15.24;100.00;99707.88;5021968;28;20439;-74
2022/10/20 04:26:59;;;;;;;24.10;7.18;;;;;;;15.22;100.00;99695.38;5020980;28;20037;-75
2022/10/20 04:29:25;;;;;;;20.75;7.07;;;;;;;15.23;100.00;99697.00;5007941;28;20033;-74
2022/10/20 04:31:50;;;;;;;26.90;7.22;;;;;;;15.23;100.00;99695.03;5005571;28;20029;-75
2022/10/20 04:34:16;;;;;;;19.90;5.90;;;;;;;15.23;100.00;99699.81;5022329;28;20032;-74
2022/10/20 04:36:41;;;;;;;20.38;6.72;;;;;;;15.20;100.00;99698.50;5055184;28;20083;-75
2022/10/20 04:39:07;;;;;;;16.88;5.78;;;;;;;15.18;100.00;99698.88;5038370;28;20485;-75
2022/10/20 04:41:32;;;;;;;13.00;5.55;;;;;;;15.22;100.00;99698.19;5022000;28;20100;-74
2022/10/20 04:43:58;;;;;;;22.95;5.93;;;;;;;15.17;100.00;99693.59;5022101;28;20032;-75
2022/10/20 04:46:25;;;;;;;19.70;5.43;;;;;;;15.20;100.00;99692.91;5012166;28;20399;-74
2022/10/20 04:48:51;;;;;;;10.68;4.80;;;;;;;15.18;100.00;99692.44;4999196;28;20026;-74
2022/10/20 04:51:16;;;;;;;16.02;5.10;;;;;;;15.14;100.00;99706.31;4982528;28;20570;-74
2022/10/20 04:53:42;;;;;;;12.77;4.82;;;;;;;15.15;100.00;99709.91;4998831;28;20083;-74
2022/10/20 04:56:09;;;;;;;18.73;5.38;;;;;;;15.13;100.00;99715.06;4983972;28;20038;-74
2022/10/20 04:58:34;;;;;;;18.58;4.30;;;;;;;15.12;100.00;99713.41;5025110;28;20040;-75
2022/10/20 05:01:04;;;;;;;11.27;4.55;;;;;;;15.13;100.00;99703.88;5025160;28;20501;-74
2022/10/20 05:03:30;;;;;;;14.32;4.38;;;;;;;15.11;100.00;99708.97;4998725;28;20033;-74
2022/10/20 05:06:18;;;;;;;13.57;4.30;;;;;;;15.09;100.00;99711.28;5007056;28;20532;-74
2022/10/20 05:08:45;;;;;;;19.40;4.53;;;;;;;15.08;100.00;99706.88;5023195;28;20034;-74
2022/10/20 05:11:11;;;;;;;12.30;3.95;;;;;;;15.10;100.00;99701.72;5004386;28;20029;-74
2022/10/20 05:13:36;;;;;;;15.00;4.25;;;;;;;15.08;100.00;99699.28;5004211;28;20101;-74
2022/10/20 05:16:02;;;;;;;11.30;3.70;;;;;;;15.09;100.00;99708.50;5003487;28;20064;-75
2022/10/20 05:18:28;;;;;;;10.77;3.38;;;;;;;15.08;100.00;99695.69;4995579;28;20080;-74
2022/10/20 05:20:53;;;;;;;12.32;3.55;;;;;;;15.09;100.00;99700.09;4998530;28;20159;-74
2022/10/20 05:23:19;;;;;;;11.80;3.78;;;;;;;15.09;100.00;99691.72;4984225;28;20092;-74
2022/10/20 05:25:44;;;;;;;8.45;3.33;;;;;;;15.04;100.00;99697.53;5020678;28;20474;-74
2022/10/20 05:28:10;;;;;;;11.20;3.15;;;;;;;15.07;100.00;99713.59;5015031;28;20532;-74
2022/10/20 05:30:36;;;;;;;12.50;3.58;;;;;;;15.06;100.00;99721.19;4998387;28;20037;-74
2022/10/20 05:33:01;;;;;;;9.13;3.30;;;;;;;15.03;100.00;99727.47;4999699;28;20029;-75
2022/10/20 05:35:27;;;;;;;10.93;3.33;;;;;;;15.02;100.00;99725.84;4993419;28;20036;-75
2022/10/20 05:37:53;;;;;;;12.48;3.25;;;;;;;15.04;100.00;99722.69;5006797;28;20040;-75
2022/10/20 05:40:18;;;;;;;12.57;3.20;;;;;;;15.04;100.00;99728.28;5026131;28;20038;-75
2022/10/20 05:42:44;;;;;;;13.10;3.40;;;;;;;14.99;100.00;99746.09;4978609;28;20052;-74
2022/10/20 05:45:09;;;;;;;11.07;3.00;;;;;;;15.03;100.00;99755.44;5009978;28;20028;-74
2022/10/20 05:47:35;;;;;;;9.95;2.90;;;;;;;15.00;100.00;99724.53;5020454;28;20057;-74
2022/10/20 05:50:00;;;;;;;8.65;3.10;;;;;;;14.96;100.00;99724.41;5009258;28;20033;-74
2022/10/20 05:52:26;;;;;;;8.32;2.92;;;;;;;14.91;100.00;99705.06;5023991;28;20038;-74
2022/10/20 05:54:51;;;;;;;10.95;2.80;;;;;;;14.90;100.00;99709.81;5029905;28;20086;-74
2022/10/20 05:57:17;;;;;;;9.00;2.33;;;;;;;14.88;100.00;99703.75;4992308;28;20030;-75
2022/10/20 05:59:42;;;;;;;8.45;2.50;;;;;;;14.85;100.00;99703.59;4996881;28;20711;-74
2022/10/20 06:02:11;;;;;;;8.30;2.40;;;;;;;14.82;100.00;99707.09;5034761;28;20022;-74
2022/10/20 06:04:37;;;;;;;6.38;2.15;;;;;;;14.82;100.00;99705.13;4990002;28;20090;-74
2022/10/20 06:07:04;;;;;;;7.82;1.95;;;;;;;14.81;100.00;99711.88;4998732;28;20628;-75
2022/10/20 06:09:30;;;;;;;10.00;2.22;;;;;;;14.81;100.00;99719.44;5021657;28;20025;-75
2022/10/20 06:11:55;;;;;;;7.47;2.25;;;;;;;14.77;100.00;99702.53;5004952;28;20104;-74
2022/10/20 06:14:21;;;;;;;5.22;1.67;;;;;;;14.72;100.00;99716.72;5006190;28;20034;-74
2022/10/20 06:16:50;;;;;;;5.95;1.85;;;;;;;14.71;100.00;99715.09;5014787;28;20021;-74
2022/10/20 06:19:16;;;;;;;5.53;1.65;;;;;;;14.68;100.00;99711.00;4995388;28;20477;-74
2022/10/20 06:21:41;;;;;;;10.48;2.22;;;;;;;14.64;100.00;99721.22;5023066;28;20021;-73
2022/10/20 06:24:08;;;;;;;5.30;1.88;;;;;;;14.62;100.00;99726.31;4997311;28;20037;-74
2022/10/20 06:26:35;;;;;;;5.88;1.83;;;;;;;14.56;100.00;99718.50;5011165;28;20093;-75
2022/10/20 06:29:01;;;;;;;4.50;1.75;;;;;;;14.47;100.00;99716.53;4990677;28;20030;-74
2022/10/20 06:31:34;;;;;;;3.60;1.58;;;;;;;14.43;100.00;99721.19;4999019;28;20033;-75
2022/10/20 06:34:00;;;;;;;4.45;1.52;;;;;;;14.41;100.00;99733.84;4999107;28;20053;-75
2022/10/20 06:36:25;;;;;;;8.35;1.75;;;;;;;14.36;100.00;99731.25;5044014;28;20590;-75
2022/10/20 06:38:52;;;;;;;2.47;1.23;;;;;;;14.29;100.00;99721.44;5031107;28;20112;-75
2022/10/20 06:41:18;;;;;;;5.60;1.48;;;;;;;14.21;100.00;99725.09;5002312;28;20579;-75
2022/10/20 06:43:43;;;;;;;4.43;1.35;;;;;;;14.20;100.00;99729.03;5011572;28;20040;-75
2022/10/20 06:46:14;;;;;;;5.68;1.58;;;;;;;14.14;100.00;99729.56;5001347;28;20179;-75
2022/10/20 06:48:39;;;;;;;5.45;1.45;;;;;;;14.06;100.00;99725.66;5002703;28;20030;-75
2022/10/20 06:51:15;;;;;;;4.32;1.25;;;;;;;14.02;100.00;99716.34;5015421;28;20540;-75
2022/10/20 06:53:41;;;;;;;3.55;1.60;;;;;;;13.95;100.00;99714.06;5010392;28;20710;-75
2022/10/20 06:56:10;;;;;;;5.75;1.27;;;;;;;13.86;100.00;99714.09;5042056;28;20397;-75
2022/10/20 06:58:35;;;;;;;4.32;1.50;;;;;;;13.83;100.00;99719.53;5001618;28;20034;-75
2022/10/20 07:01:09;;;;;;;3.55;1.35;;;;;;;13.77;100.00;99721.69;5026831;28;20109;-75
2022/10/20 07:03:35;;;;;;;4.32;1.48;;;;;;;13.74;100.00;99732.72;4996981;28;20030;-75
2022/10/20 07:06:01;;;;;;;5.60;1.65;;;;;;;13.73;100.00;99736.66;4999989;28;20376;-75
2022/10/20 07:08:27;;;;;;;6.30;1.67;;;;;;;13.68;100.00;99734.03;4994019;28;20030;-75
2022/10/20 07:11:03;;;;;;;2.70;1.30;;;;;;;13.68;100.00;99739.63;5017300;28;20025;-75
2022/10/20 07:13:29;;;;;;;3.83;1.25;;;;;;;13.68;100.00;99734.03;4991203;28;20573;-75
2022/10/20 07:15:55;;;;;;;5.15;1.50;;;;;;;13.67;100.00;99724.03;5012237;28;20033;-75
2022/10/20 07:18:21;;;;;;;6.97;1.55;;;;;;;13.68;100.00;99734.88;5017374;28;20026;-75
2022/10/20 07:20:47;;;;;;;2.63;1.17;;;;;;;13.73;100.00;99736.66;4991388;28;20032;-75
2022/10/20 07:23:12;;;;;;;5.90;1.25;;;;;;;13.77;100.00;99737.63;5026772;28;20029;-75
2022/10/20 07:25:37;;;;;;;3.75;1.30;;;;;;;13.84;100.00;99743.50;5011261;28;20026;-76
2022/10/20 07:28:03;;;;;;;4.82;1.40;;;;;;;13.88;100.00;99747.28;4996571;28;20546;-75
2022/10/20 07:30:28;;;;;;;4.50;1.70;;;;;;;13.94;100.00;99745.91;5044469;28;20029;-75
2022/10/20 07:32:54;;;;;;;4.03;1.30;;;;;;;14.01;100.00;99748.19;5022894;28;20034;-75
2022/10/20 07:35:19;;;;;;;2.92;1.35;;;;;;;14.08;100.00;99743.72;5002106;28;20120;-76
2022/10/20 07:37:45;;;;;;;3.67;1.52;;;;;;;14.15;100.00;99736.78;4988705;28;20037;-75
2022/10/20 07:40:10;;;;;;;4.95;1.60;;;;;;;14.24;100.00;99741.19;4998686;28;20028;-76
2022/10/20 07:42:36;;;;;;;5.65;1.48;;;;;;;14.32;100.00;99742.28;5020449;28;20026;-75
2022/10/20 07:45:01;;;;;;;3.15;1.20;;;;;;;14.40;100.00;99743.38;5002547;28;20037;-75
2022/10/20 07:47:27;;;;;;;3.72;1.27;;;;;;;14.48;100.00;99745.28;5017682;28;20037;-76
2022/10/20 07:49:52;;;;;;;4.28;1.60;;;;;;;14.57;100.00;99748.06;5011470;28;20091;-75
2022/10/20 07:52:18;;;;;;;4.07;1.70;;;;;;;14.67;100.00;99753.25;5022963;28;20026;-75
2022/10/20 07:54:44;;;;;;;5.20;1.73;;;;;;;14.77;100.00;99758.44;5000047;28;20132;-75
2022/10/20 07:57:09;;;;;;;4.85;1.48;;;;;;;14.85;100.00;99760.34;5007054;28;20044;-75
2022/10/20 07:59:34;;;;;;;8.02;1.75;;;;;;;14.94;100.00;99752.72;5010920;28;20036;-75
2022/10/20 08:02:00;;;;;;;2.53;1.40;;;;;;;15.02;100.00;99750.19;5012345;28;20383;-75
2022/10/20 08:04:26;;;;;;;5.63;1.60;;;;;;;15.10;100.00;99752.06;4973752;28;20565;-75
2022/10/20 08:06:52;;;;;;;4.10;1.55;;;;;;;15.17;100.00;99755.94;4999615;28;20041;-75
2022/10/20 08:09:17;;;;;;;3.15;1.27;;;;;;;15.27;100.00;99759.50;4983716;28;20037;-75
2022/10/20 08:11:43;;;;;;;6.43;1.33;;;;;;;15.35;100.00;99755.78;4999687;28;20041;-75
2022/10/20 08:14:08;;;;;;;3.80;1.50;;;;;;;15.44;100.00;99764.91;5002226;28;20092;-76
2022/10/20 08:16:34;;;;;;;4.13;1.48;;;;;;;15.52;100.00;99760.41;4999612;28;20037;-75
2022/10/20 08:19:00;;;;;;;2.88;1.35;;;;;;;15.61;100.00;99763.91;5025244;28;20021;-75
2022/10/20 08:21:25;;;;;;;3.90;1.20;;;;;;;15.70;100.00;99761.88;4983921;28;20018;-75
2022/10/20 08:23:51;;;;;;;4.75;1.13;;;;;;;15.79;100.00;99756.97;5015727;28;20495;-75
2022/10/20 08:26:18;;;;;;;5.60;1.55;;;;;;;15.87;100.00;99763.63;5028069;28;20025;-75
2022/10/20 08:28:44;;;;;;;4.78;1.20;;;;;;;15.98;100.00;99772.41;4993531;28;20118;-75
2022/10/20 08:31:09;;;;;;;2.85;1.00;;;;;;;16.07;100.00;99767.50;4992813;28;20030;-75
2022/10/20 08:33:35;;;;;;;3.83;1.20;;;;;;;16.18;100.00;99774.28;5011638;28;20502;-75
2022/10/20 08:36:02;;;;;;;2.65;0.77;;;;;;;16.30;100.00;99773.50;5018915;28;20087;-76
2022/10/20 08:38:27;;;;;;;3.08;0.93;;;;;;;16.39;100.00;99771.38;5009736;28;20028;-75
2022/10/20 08:40:53;;;;;;;3.38;1.00;;;;;;;16.50;100.00;99766.13;5005462;28;20034;-75
2022/10/20 08:43:19;;;;;;;1.92;1.00;;;;;;;16.63;100.00;99773.34;4985803;28;20018;-76
2022/10/20 08:45:44;;;;;;;4.90;1.00;;;;;;;16.70;100.00;99764.34;5010847;28;20577;-75
2022/10/20 08:48:21;;;;;;;1.90;0.60;;;;;;;16.81;100.00;99771.13;4993384;28;20036;-75
2022/10/20 08:50:47;;;;;;;2.72;0.55;;;;;;;16.92;100.00;99765.84;5001904;28;20513;-76
2022/10/20 08:53:13;;;;;;;5.50;1.00;;;;;;;17.02;100.00;99770.13;5028024;28;20033;-76
2022/10/20 08:55:38;;;;;;;1.23;0.57;;;;;;;17.10;100.00;99769.97;5008655;28;20034;-75
2022/10/20 08:58:11;;;;;;;5.22;0.75;;;;;;;17.23;100.00;99767.13;5025965;28;20627;-75
2022/10/20 09:00:38;;;;;;;3.47;0.65;;;;;;;17.30;100.00;99750.47;4999446;28;20394;-75
2022/10/20 09:03:17;;;;;;;1.52;0.60;;;;;;;17.41;100.00;99751.59;5014540;28;20029;-75
2022/10/20 09:05:45;;;;;;;3.35;0.70;;;;;;;17.50;100.00;99757.06;5018436;28;20033;-76
2022/10/20 09:08:10;;;;;;;2.60;0.50;;;;;;;17.62;100.00;99760.59;5011081;28;20029;-76
2022/10/20 09:10:36;;;;;;;2.33;0.50;;;;;;;17.72;100.00;99750.84;5031479;28;20041;-75
2022/10/20 09:13:05;;;;;;;2.45;0.50;;;;;;;17.82;100.00;99755.94;5019412;28;20482;-76
2022/10/20 09:15:31;;;;;;;1.65;0.52;;;;;;;17.93;100.00;99747.81;5020493;28;20477;-76
2022/10/20 09:18:02;;;;;;;1.83;0.63;;;;;;;17.99;100.00;99749.16;5010001;28;20044;-76
2022/10/20 09:20:33;;;;;;;3.20;0.88;;;;;;;18.08;100.00;99744.19;4999953;28;20029;-76
2022/10/20 09:22:59;;;;;;;1.35;0.47;;;;;;;18.18;100.00;99748.44;5007619;28;20018;-76
2022/10/20 09:25:26;;;;;;;2.78;0.57;;;;;;;18.25;100.00;99747.81;4998952;28;20037;-75
2022/10/20 09:27:52;;;;;;;3.13;0.52;;;;;;;18.25;100.00;99753.44;4985568;28;20053;-76
2022/10/20 09:30:32;;;;;;;5.32;0.70;;;;;;;18.37;100.00;99749.69;5031098;28;20052;-76
2022/10/20 09:32:57;;;;;;;1.65;0.70;;;;;;;18.43;100.00;99743.41;5016368;28;20061;-75
2022/10/20 09:35:27;;;;;;;2.88;0.63;;;;;;;18.61;100.00;99749.47;4998471;28;20033;-76
2022/10/20 09:38:14;;;;;;;1.65;0.60;;;;;;;18.67;100.00;99753.63;5013973;28;20449;-75
2022/10/20 09:40:53;;;;;;;3.10;0.70;;;;;;;18.76;100.00;99750.63;5014960;28;20057;-76
2022/10/20 09:43:19;;;;;;;1.63;0.50;;;;;;;18.84;100.00;99751.59;5024846;28;20056;-76
2022/10/20 09:45:51;;;;;;;4.80;0.50;;;;;;;18.92;100.00;99748.56;5004651;28;20025;-76
2022/10/20 09:48:23;;;;;;;3.47;0.90;;;;;;;19.03;100.00;99747.97;4998273;28;20033;-76
2022/10/20 09:50:54;;;;;;;1.77;0.50;;;;;;;19.10;100.00;99748.13;5000585;28;20271;-76
2022/10/20 09:53:21;;;;;;;5.82;0.88;;;;;;;19.19;100.00;99746.75;5027890;28;20041;-76
2022/10/20 09:55:47;;;;;;;2.00;0.68;;;;;;;19.24;100.00;99744.78;5024643;28;20056;-79
2022/10/20 09:58:24;;;;;;;4.18;0.80;;;;;;;19.26;100.00;99746.06;5027358;28;20681;-75
2022/10/20 10:00:58;;;;;;;4.82;1.10;;;;;;;19.35;100.00;99746.63;5031425;28;20041;-75
2022/10/20 10:03:24;;;;;;;2.58;1.00;;;;;;;19.37;100.00;99758.34;5008826;28;20033;-75
2022/10/20 10:05:51;;;;;;;3.58;0.80;;;;;;;19.44;100.00;99749.22;4993413;28;20501;-75
2022/10/20 10:08:17;;;;;;;4.20;0.82;;;;;;;19.49;100.00;99756.56;5012904;28;20044;-75
2022/10/20 10:10:44;;;;;;;5.00;1.00;;;;;;;19.51;100.00;99751.38;5010946;28;20064;-75
2022/10/20 10:13:24;;;;;;;6.97;1.10;;;;;;;19.52;100.00;99742.53;4997441;28;20029;-75
2022/10/20 10:15:58;;;;;;;9.02;1.70;;;;;;;19.52;100.00;99741.72;5023259;28;20033;-76
2022/10/20 10:18:24;;;;;;;7.05;1.42;;;;;;;19.54;100.00;99739.34;5002827;28;20102;-75
2022/10/20 10:21:00;;;;;;;4.63;1.30;;;;;;;19.55;100.00;99736.16;5005104;28;20033;-75
2022/10/20 10:23:25;;;;;;;9.57;1.90;;;;;;;19.55;100.00;99726.91;5015997;28;20038;-74
2022/10/20 10:25:51;;;;;;;3.58;1.13;;;;;;;19.60;100.00;99729.41;4997953;28;20037;-74
2022/10/20 10:28:21;;;;;;;9.00;1.50;;;;;;;19.59;100.00;99724.97;5000629;28;20401;-74
2022/10/20 10:30:47;;;;;;;6.25;1.60;;;;;;;19.63;100.00;99721.00;5033739;28;20029;-74
2022/10/20 10:33:26;;;;;;;7.13;1.80;;;;;;;19.71;100.00;99705.09;5010333;28;20034;-74
2022/10/20 10:35:51;;;;;;;7.70;1.73;;;;;;;19.73;100.00;99691.47;5016716;28;20080;-75
2022/10/20 10:38:17;;;;;;;7.57;1.70;;;;;;;19.81;100.00;99698.03;5011709;28;20110;-74
2022/10/20 10:40:52;;;;;;;7.57;2.25;;;;;;;19.87;100.00;99685.25;5020306;28;20044;-75
2022/10/20 10:43:30;;;;;;;6.60;2.03;;;;;;;19.98;100.00;99691.88;5022534;28;20036;-75
2022/10/20 10:46:13;;;;;;;10.07;1.85;;;;;;;20.07;100.00;99685.97;5042811;28;20398;-75
2022/10/20 10:49:00;;;;;;;6.65;1.67;;;;;;;20.17;100.00;99687.31;4991663;28;20075;-75
2022/10/20 10:51:41;;;;;;;10.20;1.90;;;;;;;20.31;100.00;99681.94;5035820;28;20122;-76
2022/10/20 10:54:10;;;;;;;11.38;2.58;;;;;;;20.42;100.00;99684.88;5041750;28;20029;-76
2022/10/20 10:56:41;;;;;;;6.57;1.77;;;;;;;20.54;100.00;99679.06;5033528;28;20799;-75
2022/10/20 10:59:14;;;;;;;7.60;1.63;;;;;;;20.70;100.00;99674.03;5038363;28;20063;-75
2022/10/20 11:01:39;;;;;;;;;;;;;;;20.75;100.00;99676.53;5036968;28;20454;-75
2022/10/20 11:04:11;;;;;;;7.88;1.83;;;;;;;20.85;100.00;99675.03;5015137;28;19909;-76
2022/10/20 11:06:41;;;;;;;10.23;2.63;;;;;;;20.91;100.00;99681.16;5032225;28;20065;-75
2022/10/20 11:09:27;;;;;;;8.27;1.70;;;;;;;20.98;100.00;99673.59;4997924;28;20056;-75
2022/10/20 11:12:32;;;;;;;10.32;2.28;;;;;;;21.08;100.00;99676.91;5018197;28;20030;-75
2022/10/20 11:15:17;;;;;;;10.35;2.03;;;;;;;21.16;100.00;99673.78;5035094;28;20398;-75
2022/10/20 11:17:55;;;;;;;8.20;1.75;;;;;;;21.29;100.00;99677.16;5014491;28;20113;-75
2022/10/20 11:20:20;;;;;;;7.97;1.60;;;;;;;21.39;100.00;99667.19;5037659;28;20029;-75
2022/10/20 11:23:07;;;;;;;8.13;1.55;;;;;;;21.54;100.00;99660.50;5025848;28;20391;-75
2022/10/20 11:25:33;;;;;;;9.75;1.80;;;;;;;21.61;100.00;99654.09;5032157;28;20037;-75
2022/10/20 11:27:58;;;;;;;8.93;1.83;;;;;;;21.65;100.00;99646.47;5020054;28;20041;-76